createdAt,value
2022-10-31T00:01:31.316Z,96359.69
2022-10-31T00:03:59.641Z,96349.53
2022-10-31T00:06:27.908Z,96355.94
2022-10-31T00:08:56.694Z,96367.69
2022-10-31T00:11:25.123Z,96358.84
2022-10-31T00:13:53.546Z,96359.66
2022-10-31T00:16:24.280Z,96355.06
2022-10-31T00:18:52.673Z,96357.94
2022-10-31T00:21:21.351Z,96364.59
2022-10-31T00:23:49.731Z,96354.41
2022-10-31T00:26:18.602Z,96366.16
2022-10-31T00:28:46.979Z,96369.66
2022-10-31T00:31:15.803Z,96369.66
2022-10-31T00:33:45.687Z,96372.56
2022-10-31T00:36:14.870Z,96372.56
2022-10-31T00:38:43.334Z,96379.69
2022-10-31T00:41:11.649Z,96379.09
2022-10-31T00:43:43.039Z,96382.31
2022-10-31T00:46:13.494Z,96379.91
2022-10-31T00:48:42.932Z,96380.16
2022-10-31T00:51:12.813Z,96382.81
2022-10-31T00:53:45.637Z,96378.78
2022-10-31T00:56:14.779Z,96379.53
2022-10-31T00:58:44.409Z,96381.06
2022-10-31T01:01:12.948Z,96380.78
2022-10-31T01:03:41.398Z,96379.16
2022-10-31T01:06:14.939Z,96379.16
2022-10-31T01:08:43.517Z,96382.56
2022-10-31T01:11:15.718Z,96381.75
2022-10-31T01:13:44.174Z,96382.31
2022-10-31T01:16:14.575Z,96380.13
2022-10-31T01:18:42.857Z,96381.22
2022-10-31T01:21:13.005Z,96375.31
2022-10-31T01:23:43.147Z,96381.72
2022-10-31T01:26:14.908Z,96379.53
2022-10-31T01:28:46.619Z,96380.56
2022-10-31T01:31:15.788Z,96381.09
2022-10-31T01:33:44.468Z,96392.81
2022-10-31T01:36:20.246Z,96392.72
2022-10-31T01:38:53.965Z,96388.69
2022-10-31T01:41:23.340Z,96388.41
2022-10-31T01:43:53.040Z,96375.53
2022-10-31T01:46:24.079Z,96369.88
2022-10-31T01:48:52.705Z,96371.44
2022-10-31T01:51:22.007Z,96376.19
2022-10-31T01:53:50.589Z,96375.91
2022-10-31T01:56:20.416Z,96380.16
2022-10-31T01:58:48.727Z,96372.16
2022-10-31T02:01:18.990Z,96378.00
2022-10-31T02:03:47.819Z,96379.63
2022-10-31T02:06:21.786Z,96370.81
2022-10-31T02:08:51.306Z,96362.22
2022-10-31T02:11:21.169Z,96375.25
2022-10-31T02:13:49.591Z,96375.41
2022-10-31T02:16:18.401Z,96370.81
2022-10-31T02:18:46.709Z,96376.94
2022-10-31T02:21:19.095Z,96372.75
2022-10-31T02:24:06.285Z,96376.28
2022-10-31T02:26:57.125Z,96376.06
2022-10-31T02:29:57.519Z,96368.84
2022-10-31T02:32:29.687Z,96369.66
2022-10-31T02:35:00.578Z,96378.41
2022-10-31T02:37:31.841Z,96373.09
2022-10-31T02:40:03.995Z,96366.94
2022-10-31T02:42:51.488Z,96365.31
2022-10-31T02:45:23.816Z,96367.66
2022-10-31T02:47:53.630Z,96373.81
2022-10-31T02:50:23.688Z,96364.75
2022-10-31T02:52:53.294Z,96372.19
2022-10-31T02:55:51.226Z,96367.31
2022-10-31T02:58:21.860Z,96360.41
2022-10-31T03:01:03.473Z,96366.78
2022-10-31T03:03:36.533Z,96363.31
2022-10-31T03:06:09.414Z,96373.31
2022-10-31T03:08:39.599Z,96365.88
2022-10-31T03:11:10.780Z,96365.41
2022-10-31T03:13:42.401Z,96358.78
2022-10-31T03:16:13.850Z,96363.78
2022-10-31T03:18:45.130Z,96370.97
2022-10-31T03:21:15.045Z,96359.50
2022-10-31T03:23:44.020Z,96365.31
2022-10-31T03:26:21.047Z,96370.34
2022-10-31T03:28:52.996Z,96374.06
2022-10-31T03:31:22.125Z,96380.22
2022-10-31T03:33:52.220Z,96373.50
2022-10-31T03:36:20.598Z,96373.66
2022-10-31T03:38:48.972Z,96371.81
2022-10-31T03:41:21.531Z,96378.19
2022-10-31T03:43:55.300Z,96373.34
2022-10-31T03:46:25.152Z,96370.66
2022-10-31T03:48:57.238Z,96376.00
2022-10-31T03:51:27.283Z,96368.81
2022-10-31T03:53:57.570Z,96376.56
2022-10-31T03:56:29.636Z,96376.34
2022-10-31T03:59:01.158Z,96373.91
2022-10-31T04:01:31.855Z,96369.84
2022-10-31T04:04:01.778Z,96377.06
2022-10-31T04:06:30.169Z,96376.97
2022-10-31T04:09:00.005Z,96380.13
2022-10-31T04:11:30.948Z,96373.97
2022-10-31T04:14:38.527Z,96370.50
2022-10-31T04:17:09.507Z,96367.53
2022-10-31T04:19:43.135Z,96375.78
2022-10-31T04:22:11.934Z,96370.34
2022-10-31T04:24:41.725Z,96382.03
2022-10-31T04:27:14.328Z,96370.84
2022-10-31T04:29:45.497Z,96369.78
2022-10-31T04:32:17.094Z,96371.66
2022-10-31T04:34:46.782Z,96364.13
2022-10-31T04:37:15.561Z,96376.66
2022-10-31T04:39:44.270Z,96378.56
2022-10-31T04:42:33.083Z,96377.53
2022-10-31T04:45:04.971Z,96373.00
2022-10-31T04:47:37.967Z,96377.06
2022-10-31T04:50:09.848Z,96362.34
2022-10-31T04:52:41.763Z,96374.31
2022-10-31T04:55:11.733Z,96373.97
2022-10-31T05:00:45.658Z,96378.94
2022-10-31T05:03:14.597Z,96381.16
2022-10-31T05:05:45.245Z,96372.00
2022-10-31T05:08:15.257Z,96374.59
2022-10-31T05:10:43.952Z,96379.34
2022-10-31T05:13:12.507Z,96378.75
2022-10-31T05:16:12.838Z,96386.22
2022-10-31T05:19:13.294Z,96378.94
2022-10-31T05:22:04.232Z,96376.50
2022-10-31T05:24:34.894Z,96381.19
2022-10-31T05:27:03.268Z,96376.66
2022-10-31T05:29:34.375Z,96378.84
2022-10-31T05:32:04.838Z,96382.00
2022-10-31T05:35:02.031Z,96382.22
2022-10-31T05:37:51.829Z,96382.22
2022-10-31T05:40:20.688Z,96382.22
2022-10-31T05:42:50.119Z,96381.66
2022-10-31T05:45:19.487Z,96377.84
2022-10-31T05:47:54.448Z,96382.59
2022-10-31T05:50:49.790Z,96381.81
2022-10-31T05:53:20.185Z,96381.22
2022-10-31T05:55:49.138Z,96388.16
2022-10-31T05:58:21.402Z,96391.88
2022-10-31T06:01:06.618Z,96387.28
2022-10-31T06:03:35.414Z,96393.88
2022-10-31T06:06:06.060Z,96386.13
2022-10-31T06:08:39.882Z,96394.94
2022-10-31T06:11:13.691Z,96396.44
2022-10-31T06:14:00.472Z,96392.19
2022-10-31T06:16:36.536Z,96395.09
2022-10-31T06:19:25.110Z,96390.00
2022-10-31T06:21:55.494Z,96388.94
2022-10-31T06:24:25.787Z,96396.59
2022-10-31T06:26:56.823Z,96400.19
2022-10-31T06:29:25.755Z,96395.16
2022-10-31T06:32:04.231Z,96403.50
2022-10-31T06:34:36.451Z,96396.91
2022-10-31T06:37:04.822Z,96400.69
2022-10-31T06:39:34.560Z,96405.31
2022-10-31T06:42:02.980Z,96400.31
2022-10-31T06:44:33.170Z,96407.59
2022-10-31T06:47:01.469Z,96406.03
2022-10-31T06:49:52.494Z,96404.31
2022-10-31T06:52:24.922Z,96412.94
2022-10-31T06:54:55.524Z,96405.06
2022-10-31T06:57:25.107Z,96409.28
2022-10-31T06:59:53.410Z,96409.38
2022-10-31T07:02:33.485Z,96412.47
2022-10-31T07:05:02.923Z,96410.22
2022-10-31T07:07:31.390Z,96415.69
2022-10-31T07:10:01.770Z,96419.59
2022-10-31T07:12:57.355Z,96425.31
2022-10-31T07:15:25.897Z,96436.63
2022-10-31T07:17:54.917Z,96426.63
2022-10-31T07:20:23.699Z,96429.91
2022-10-31T07:22:52.420Z,96432.16
2022-10-31T07:25:24.079Z,96432.56
2022-10-31T07:28:27.871Z,96430.59
2022-10-31T07:30:57.085Z,96426.69
2022-10-31T07:33:26.848Z,96426.25
2022-10-31T07:36:13.493Z,96423.38
2022-10-31T07:38:49.915Z,96430.22
2022-10-31T07:41:19.861Z,96425.81
2022-10-31T07:43:48.919Z,96432.34
2022-10-31T07:46:40.201Z,96434.44
2022-10-31T07:49:28.691Z,96432.75
2022-10-31T07:52:16.219Z,96429.88
2022-10-31T07:55:03.025Z,96438.84
2022-10-31T07:57:34.805Z,96424.00
2022-10-31T08:00:06.397Z,96431.41
2022-10-31T08:02:47.657Z,96435.56
2022-10-31T08:05:46.986Z,96417.22
2022-10-31T08:08:32.220Z,96429.16
2022-10-31T08:11:03.701Z,96426.06
2022-10-31T08:13:39.023Z,96419.44
2022-10-31T08:16:08.595Z,96424.06
2022-10-31T08:18:44.127Z,96423.31
2022-10-31T08:21:16.296Z,96421.47
2022-10-31T08:23:46.543Z,96414.75
2022-10-31T08:26:16.071Z,96413.97
2022-10-31T08:28:47.566Z,96416.94
2022-10-31T08:31:16.313Z,96412.84
2022-10-31T08:33:45.931Z,96417.81
2022-10-31T08:36:14.161Z,96414.72
2022-10-31T08:38:59.168Z,96416.25
2022-10-31T08:41:30.602Z,96420.44
2022-10-31T08:44:01.831Z,96417.03
2022-10-31T08:46:30.367Z,96417.94
2022-10-31T08:48:58.847Z,96416.75
2022-10-31T08:51:27.410Z,96413.63
2022-10-31T08:53:57.447Z,96413.44
2022-10-31T08:56:34.652Z,96417.31
2022-10-31T08:59:07.279Z,96409.34
2022-10-31T09:01:49.905Z,96404.38
2022-10-31T09:04:19.851Z,96409.63
2022-10-31T09:07:19.605Z,96412.13
2022-10-31T09:09:37.118Z,96404.94
2022-10-31T09:12:09.958Z,96400.63
2022-10-31T09:14:58.725Z,96397.41
2022-10-31T09:17:32.458Z,96391.47
2022-10-31T09:20:39.624Z,96387.81
2022-10-31T09:23:09.674Z,96389.81
2022-10-31T09:25:47.566Z,96396.66
2022-10-31T09:28:38.986Z,96396.13
2022-10-31T09:31:12.321Z,96393.44
2022-10-31T09:34:01.028Z,96398.94
2022-10-31T09:36:38.579Z,96397.28
2022-10-31T09:39:13.415Z,96398.69
2022-10-31T09:41:57.213Z,96399.81
2022-10-31T09:44:31.122Z,96406.81
2022-10-31T09:47:05.233Z,96406.28
2022-10-31T09:49:41.301Z,96398.53
2022-10-31T09:52:13.935Z,96398.72
2022-10-31T09:54:45.465Z,96396.13
2022-10-31T09:57:22.582Z,96406.50
2022-10-31T10:00:00.679Z,96394.31
2022-10-31T10:02:37.125Z,96404.59
2022-10-31T10:05:06.876Z,96397.13
2022-10-31T10:07:43.680Z,96403.94
2022-10-31T10:10:16.862Z,96407.66
2022-10-31T10:13:14.020Z,96404.19
2022-10-31T10:16:05.388Z,96399.81
2022-10-31T10:18:43.611Z,96402.75
2022-10-31T10:21:22.252Z,96401.03
2022-10-31T10:23:59.620Z,96405.34
2022-10-31T10:29:06.107Z,96401.19
2022-10-31T10:31:37.685Z,96397.56
2022-10-31T10:34:14.164Z,96398.34
2022-10-31T10:36:44.911Z,96387.03
2022-10-31T10:39:16.712Z,96384.94
2022-10-31T10:41:48.441Z,96384.75
2022-10-31T10:44:17.094Z,96385.63
2022-10-31T10:47:03.462Z,96386.75
2022-10-31T10:49:35.543Z,96381.31
2022-10-31T10:55:02.442Z,96376.66
2022-10-31T10:57:39.226Z,96373.31
2022-10-31T11:00:19.957Z,96370.59
2022-10-31T11:02:50.455Z,96370.72
2022-10-31T11:05:28.294Z,96372.16
2022-10-31T11:07:59.806Z,96357.28
2022-10-31T11:10:28.648Z,96363.34
2022-10-31T11:13:17.363Z,96353.75
2022-10-31T11:15:53.483Z,96351.63
2022-10-31T11:18:26.332Z,96353.03
2022-10-31T11:20:58.074Z,96346.81
2022-10-31T11:23:29.758Z,96344.09
2022-10-31T11:25:59.029Z,96341.50
2022-10-31T11:28:27.584Z,96332.81
2022-10-31T11:30:58.447Z,96336.00
2022-10-31T11:33:29.980Z,96335.38
2022-10-31T11:36:00.131Z,96319.66
2022-10-31T11:38:33.069Z,96320.34
2022-10-31T11:41:11.211Z,96319.59
2022-10-31T11:43:39.840Z,96318.78
2022-10-31T11:46:17.276Z,96310.28
2022-10-31T11:48:50.527Z,96306.81
2022-10-31T11:51:27.589Z,96314.66
2022-10-31T11:54:01.783Z,96306.00
2022-10-31T11:56:42.799Z,96306.31
2022-10-31T12:00:22.280Z,96296.66
2022-10-31T12:03:17.906Z,96298.09
2022-10-31T12:05:47.266Z,96290.91
2022-10-31T12:08:17.598Z,96293.94
2022-10-31T12:10:53.026Z,96288.38
2022-10-31T12:13:35.062Z,96282.44
2022-10-31T12:16:08.486Z,96285.47
2022-10-31T12:18:44.447Z,96275.88
2022-10-31T12:21:22.082Z,96274.91
2022-10-31T12:23:58.964Z,96278.59
2022-10-31T12:26:31.502Z,96276.81
2022-10-31T12:29:13.439Z,96277.94
2022-10-31T12:31:51.742Z,96274.75
2022-10-31T12:34:48.687Z,96265.50
2022-10-31T12:37:27.832Z,96266.44
2022-10-31T12:40:07.627Z,96261.81
2022-10-31T12:42:44.575Z,96258.59
2022-10-31T12:45:22.844Z,96255.38
2022-10-31T12:48:09.604Z,96250.09
2022-10-31T12:50:49.614Z,96255.34
2022-10-31T12:53:25.848Z,96248.81
2022-10-31T12:56:02.675Z,96245.72
2022-10-31T12:58:33.027Z,96243.75
2022-10-31T13:01:08.909Z,96241.19
2022-10-31T13:03:41.247Z,96240.81
2022-10-31T13:06:15.571Z,96243.69
2022-10-31T13:08:47.559Z,96240.78
2022-10-31T13:11:22.542Z,96246.69
2022-10-31T13:13:58.808Z,96243.94
2022-10-31T13:16:28.939Z,96241.97
2022-10-31T13:18:59.943Z,96233.16
2022-10-31T13:21:29.802Z,96240.66
2022-10-31T13:23:59.088Z,96239.50
2022-10-31T13:26:39.686Z,96238.16
2022-10-31T13:29:11.912Z,96241.88
2022-10-31T13:31:43.633Z,96233.69
2022-10-31T13:34:18.427Z,96228.41
2022-10-31T13:36:51.002Z,96236.16
2022-10-31T13:39:24.968Z,96225.47
2022-10-31T13:41:56.144Z,96219.19
2022-10-31T13:44:25.703Z,96224.69
2022-10-31T13:46:54.841Z,96224.34
2022-10-31T13:49:28.307Z,96225.75
2022-10-31T13:52:11.059Z,96217.75
2022-10-31T13:54:40.350Z,96219.75
2022-10-31T13:57:17.929Z,96218.78
2022-10-31T13:59:50.693Z,96224.81
2022-10-31T14:02:20.313Z,96218.72
2022-10-31T14:04:50.573Z,96212.41
2022-10-31T14:07:19.949Z,96203.38
2022-10-31T14:09:55.617Z,96203.00
2022-10-31T14:12:29.001Z,96197.19
2022-10-31T14:14:59.213Z,96200.31
2022-10-31T14:17:29.049Z,96203.13
2022-10-31T14:20:39.285Z,96191.13
2022-10-31T14:23:35.215Z,96193.63
2022-10-31T14:26:22.691Z,96183.41
2022-10-31T14:28:53.059Z,96192.94
2022-10-31T14:31:36.239Z,96181.72
2022-10-31T14:34:24.971Z,96179.91
2022-10-31T14:37:02.061Z,96177.00
2022-10-31T14:39:32.870Z,96184.41
2022-10-31T14:42:09.763Z,96176.22
2022-10-31T14:45:00.780Z,96178.53
2022-10-31T14:47:35.106Z,96180.00
2022-10-31T14:50:24.596Z,96172.28
2022-10-31T14:53:00.230Z,96176.97
2022-10-31T14:56:04.250Z,96163.03
2022-10-31T14:58:45.508Z,96160.16
2022-10-31T15:01:41.021Z,96159.13
2022-10-31T15:04:23.581Z,96157.91
2022-10-31T15:06:56.719Z,96156.19
2022-10-31T15:09:26.330Z,96145.56
2022-10-31T15:12:23.927Z,96139.25
2022-10-31T15:14:53.433Z,96143.22
2022-10-31T15:17:23.601Z,96138.28
2022-10-31T15:19:54.279Z,96132.75
2022-10-31T15:22:26.686Z,96131.81
2022-10-31T15:24:57.672Z,96129.00
2022-10-31T15:27:27.324Z,96128.53
2022-10-31T15:29:57.868Z,96125.41
2022-10-31T15:32:28.528Z,96133.38
2022-10-31T15:34:59.374Z,96121.91
2022-10-31T15:37:32.476Z,96115.06
2022-10-31T15:40:21.356Z,96121.69
2022-10-31T15:43:01.239Z,96119.91
2022-10-31T15:46:11.757Z,96113.06
2022-10-31T15:48:50.660Z,96119.91
2022-10-31T15:51:50.482Z,96118.03
2022-10-31T15:57:47.706Z,96107.50
2022-10-31T16:00:29.737Z,96114.63
2022-10-31T16:03:06.887Z,96113.06
2022-10-31T16:05:40.240Z,96109.91
2022-10-31T16:08:25.504Z,96111.34
2022-10-31T16:10:54.079Z,96113.25
2022-10-31T16:13:25.172Z,96101.50
2022-10-31T16:16:03.781Z,96102.69
2022-10-31T16:18:43.595Z,96093.09
2022-10-31T16:21:13.894Z,96098.28
2022-10-31T16:23:47.024Z,96091.66
2022-10-31T16:26:16.470Z,96095.47
2022-10-31T16:28:53.451Z,96092.00
2022-10-31T16:31:33.291Z,96091.25
2022-10-31T16:34:06.675Z,96092.06
2022-10-31T16:36:39.647Z,96090.25
2022-10-31T16:39:08.383Z,96081.19
2022-10-31T16:41:41.943Z,96090.06
2022-10-31T16:44:17.657Z,96086.91
2022-10-31T16:46:46.656Z,96094.47
2022-10-31T16:49:19.829Z,96088.00
2022-10-31T16:51:49.751Z,96080.81
2022-10-31T16:54:18.160Z,96085.91
2022-10-31T16:56:48.494Z,96085.38
2022-10-31T16:59:17.081Z,96087.53
2022-10-31T17:01:48.740Z,96085.16
2022-10-31T17:04:18.744Z,96094.28
2022-10-31T17:06:47.410Z,96085.97
2022-10-31T17:09:17.583Z,96087.31
2022-10-31T17:11:49.727Z,96092.69
2022-10-31T17:14:19.776Z,96099.44
2022-10-31T17:16:48.698Z,96092.22
2022-10-31T17:19:17.422Z,96077.47
2022-10-31T17:21:45.950Z,96063.84
2022-10-31T17:24:14.817Z,96066.81
2022-10-31T17:26:44.830Z,96072.47
2022-10-31T17:29:13.424Z,96080.25
2022-10-31T17:31:42.450Z,96084.00
2022-10-31T17:34:11.389Z,96080.22
2022-10-31T17:36:42.508Z,96074.06
2022-10-31T17:39:11.008Z,96071.94
2022-10-31T17:41:39.690Z,96066.88
2022-10-31T17:44:12.274Z,96067.69
2022-10-31T17:46:40.817Z,96066.63
2022-10-31T17:49:09.382Z,96063.97
2022-10-31T17:51:38.027Z,96065.88
2022-10-31T17:54:08.969Z,96046.56
2022-10-31T17:56:40.721Z,96055.69
2022-10-31T17:59:09.340Z,96051.38
2022-10-31T18:01:40.193Z,96051.97
2022-10-31T18:04:10.486Z,96046.84
2022-10-31T18:06:40.966Z,96046.88
2022-10-31T18:09:11.659Z,96043.41
2022-10-31T18:11:43.094Z,96039.13
2022-10-31T18:14:14.309Z,96041.50
2022-10-31T18:16:44.240Z,96044.19
2022-10-31T18:19:13.828Z,96043.13
2022-10-31T18:21:45.178Z,96042.88
2022-10-31T18:24:13.762Z,96052.81
2022-10-31T18:26:42.772Z,96047.19
2022-10-31T18:29:13.315Z,96046.66
2022-10-31T18:31:48.563Z,96037.03
2022-10-31T18:34:18.824Z,96034.88
2022-10-31T18:36:47.330Z,96037.56
2022-10-31T18:39:16.327Z,96035.97
2022-10-31T18:41:48.062Z,96029.25
2022-10-31T18:44:16.597Z,96028.44
2022-10-31T18:46:46.603Z,96020.66
2022-10-31T18:49:15.673Z,96023.91
2022-10-31T18:51:56.853Z,96020.69
2022-10-31T18:54:27.291Z,96014.78
2022-10-31T18:56:56.106Z,96007.56
2022-10-31T18:59:24.707Z,96017.22
2022-10-31T19:01:53.429Z,96012.34
2022-10-31T19:04:22.174Z,96014.50
2022-10-31T19:06:52.508Z,96019.06
2022-10-31T19:09:24.447Z,96008.63
2022-10-31T19:11:52.941Z,96006.75
2022-10-31T19:14:21.381Z,96023.09
2022-10-31T19:16:52.419Z,96009.72
2022-10-31T19:19:21.814Z,96010.50
2022-10-31T19:21:54.246Z,95996.59
2022-10-31T19:24:24.845Z,95999.53
2022-10-31T19:26:53.401Z,95994.19
2022-10-31T19:29:21.888Z,95999.31
2022-10-31T19:31:57.261Z,95986.72
2022-10-31T19:34:26.183Z,95987.50
2022-10-31T19:36:56.473Z,95976.00
2022-10-31T19:39:27.388Z,95973.31
2022-10-31T19:41:55.939Z,95972.50
2022-10-31T19:44:26.827Z,95971.69
2022-10-31T19:46:55.589Z,95972.00
2022-10-31T19:49:27.048Z,95972.25
2022-10-31T19:51:57.057Z,95955.38
2022-10-31T19:54:25.798Z,95961.78
2022-10-31T19:56:54.272Z,95954.03
2022-10-31T19:59:23.088Z,95954.84
2022-10-31T20:01:51.982Z,95955.34
2022-10-31T20:04:20.611Z,95948.69
2022-10-31T20:06:49.095Z,95958.56
2022-10-31T20:09:19.220Z,95951.59
2022-10-31T20:11:50.800Z,95954.78
2022-10-31T20:14:19.595Z,95956.13
2022-10-31T20:16:48.039Z,95957.47
2022-10-31T20:19:16.673Z,95954.00
2022-10-31T20:21:45.654Z,95956.66
2022-10-31T20:24:14.325Z,95948.13
2022-10-31T20:26:47.479Z,95953.19
2022-10-31T20:29:17.739Z,95946.47
2022-10-31T20:31:46.597Z,95949.69
2022-10-31T20:34:15.385Z,95947.19
2022-10-31T20:36:43.845Z,95947.19
2022-10-31T20:39:12.456Z,95943.44
2022-10-31T20:41:41.290Z,95945.31
2022-10-31T20:44:11.312Z,95943.97
2022-10-31T20:46:39.952Z,95952.22
2022-10-31T20:49:08.610Z,95951.69
2022-10-31T20:51:37.282Z,95943.94
2022-10-31T20:54:06.961Z,95953.28
2022-10-31T20:56:35.602Z,95950.59
2022-10-31T20:59:04.196Z,95954.28
2022-10-31T21:01:38.109Z,95950.81
2022-10-31T21:04:14.810Z,95954.25
2022-10-31T21:06:49.104Z,95958.22
2022-10-31T21:09:19.148Z,95948.03
2022-10-31T21:11:47.695Z,95941.84
2022-10-31T21:14:19.147Z,95939.44
2022-10-31T21:16:49.265Z,95935.13
2022-10-31T21:19:17.805Z,95935.63
2022-10-31T21:21:46.659Z,95933.75
2022-10-31T21:24:20.265Z,95924.91
2022-10-31T21:26:50.518Z,95922.50
2022-10-31T21:29:22.112Z,95915.56
2022-10-31T21:31:52.332Z,95910.72
2022-10-31T21:34:21.085Z,95910.97
2022-10-31T21:36:49.620Z,95904.88
2022-10-31T21:39:18.300Z,95904.34
2022-10-31T21:41:48.741Z,95898.50
2022-10-31T21:44:19.989Z,95910.28
2022-10-31T21:46:48.781Z,95905.00
2022-10-31T21:49:19.721Z,95906.88
2022-10-31T21:51:48.567Z,95898.28
2022-10-31T21:54:30.285Z,95900.63
2022-10-31T21:57:01.276Z,95897.09
2022-10-31T21:59:29.757Z,95896.81
2022-10-31T22:01:59.991Z,95901.56
2022-10-31T22:04:30.222Z,95890.06
2022-10-31T22:07:01.063Z,95894.03
2022-10-31T22:09:29.540Z,95890.03
2022-10-31T22:11:59.902Z,95885.69
2022-10-31T22:14:28.423Z,95887.31
2022-10-31T22:16:57.248Z,95891.03
2022-10-31T22:19:26.082Z,95881.16
2022-10-31T22:21:56.221Z,95881.97
2022-10-31T22:24:24.801Z,95875.00
2022-10-31T22:26:53.491Z,95872.53
2022-10-31T22:29:23.167Z,95874.88
2022-10-31T22:31:57.268Z,95869.28
2022-10-31T22:34:29.143Z,95865.28
2022-10-31T22:37:02.375Z,95869.28
2022-10-31T22:39:30.871Z,95864.44
2022-10-31T22:41:59.264Z,95865.25
2022-10-31T22:44:28.081Z,95867.13
2022-10-31T22:46:56.856Z,95854.00
2022-10-31T22:49:25.569Z,95854.50
2022-10-31T22:51:55.507Z,95862.25
2022-10-31T22:54:25.741Z,95860.09
2022-10-31T22:56:54.283Z,95848.34
2022-10-31T22:59:22.828Z,95852.34
2022-10-31T23:01:51.436Z,95853.16
2022-10-31T23:04:20.551Z,95850.47
2022-10-31T23:06:51.943Z,95849.41
2022-10-31T23:09:23.861Z,95844.34
2022-10-31T23:12:17.536Z,95833.16
2022-10-31T23:14:45.092Z,95835.28
2022-10-31T23:17:18.919Z,95820.41
2022-10-31T23:19:47.476Z,95827.41
2022-10-31T23:22:16.023Z,95815.03
2022-10-31T23:24:45.246Z,95816.47
2022-10-31T23:27:15.688Z,95810.16
2022-10-31T23:29:46.286Z,95800.06
2022-10-31T23:32:18.046Z,95795.25
2022-10-31T23:34:46.686Z,95795.53
2022-10-31T23:37:15.599Z,95792.13
2022-10-31T23:39:44.221Z,95783.09
2022-10-31T23:42:13.847Z,95782.19
2022-10-31T23:44:43.927Z,95778.69
2022-10-31T23:47:12.660Z,95778.91
2022-10-31T23:49:41.066Z,95765.47
2022-10-31T23:52:09.557Z,95758.91
2022-10-31T23:54:38.087Z,95759.31
2022-10-31T23:57:06.791Z,95752.59
2022-10-31T23:59:35.384Z,95756.25
